createdAt,value
2017-10-02T00:02:12.677Z,87.60
2017-10-02T00:04:41.513Z,87.50
2017-10-02T00:07:10.345Z,87.40
2017-10-02T00:09:39.205Z,87.40
2017-10-02T00:12:08.045Z,87.40
2017-10-02T00:14:36.882Z,87.40
2017-10-02T00:17:06.511Z,87.40
2017-10-02T00:19:36.110Z,87.40
2017-10-02T00:22:05.729Z,87.70
2017-10-02T00:24:35.338Z,88.00
2017-10-02T00:27:04.954Z,87.80
2017-10-02T00:29:33.801Z,87.80
2017-10-02T00:32:02.648Z,88.50
2017-10-02T00:34:31.508Z,88.80
2017-10-02T00:37:01.113Z,88.50
2017-10-02T00:39:29.949Z,88.50
2017-10-02T00:41:58.783Z,88.50
2017-10-02T00:44:27.619Z,88.70
2017-10-02T00:46:57.446Z,88.70
2017-10-02T00:49:26.273Z,88.40
2017-10-02T00:51:54.418Z,88.20
2017-10-02T00:54:23.257Z,88.20
2017-10-02T00:56:52.881Z,88.20
2017-10-02T00:59:22.483Z,88.20
2017-10-02T01:01:52.098Z,88.00
2017-10-02T01:04:21.707Z,88.00
2017-10-02T01:06:51.343Z,87.90
2017-10-02T01:09:20.182Z,87.90
2017-10-02T01:11:49.033Z,88.10
2017-10-02T01:14:17.897Z,88.10
2017-10-02T01:16:46.746Z,88.10
2017-10-02T01:42:25.576Z,88.30
2017-10-02T01:44:54.432Z,88.00
2017-10-02T01:47:23.284Z,87.90
2017-10-02T01:49:52.133Z,88.50
2017-10-02T01:52:21.740Z,87.70
2017-10-02T01:54:51.354Z,87.80
2017-10-02T01:57:20.962Z,87.60
2017-10-02T01:59:50.567Z,87.40
2017-10-02T02:02:20.185Z,87.40
2017-10-02T02:04:49.031Z,87.40
2017-10-02T02:07:17.882Z,87.20
2017-10-02T02:09:46.719Z,87.80
2017-10-02T02:12:15.560Z,87.80
2017-10-02T02:14:44.407Z,87.60
2017-10-02T02:17:13.261Z,87.50
2017-10-02T02:19:42.101Z,88.00
2017-10-02T02:22:11.711Z,87.40
2017-10-02T02:24:41.329Z,86.90
2017-10-02T02:27:10.941Z,86.70
2017-10-02T02:29:40.546Z,86.50
2017-10-02T02:32:10.200Z,86.40
2017-10-02T02:34:39.557Z,86.40
2017-10-02T02:37:09.168Z,86.20
2017-10-02T02:39:38.791Z,86.10
2017-10-02T02:42:07.635Z,86.10
2017-10-02T02:44:36.476Z,85.80
2017-10-02T02:47:05.310Z,85.60
2017-10-02T02:49:34.159Z,85.40
2017-10-02T02:52:02.991Z,85.30
2017-10-02T02:54:31.852Z,85.00
2017-10-02T02:57:00.405Z,84.80
2017-10-02T02:59:30.020Z,84.80
2017-10-02T03:01:58.609Z,84.80
2017-10-02T03:04:27.704Z,84.70
2017-10-02T03:06:57.074Z,84.70
2017-10-02T03:09:25.921Z,84.60
2017-10-02T03:11:54.763Z,84.50
2017-10-02T03:14:24.375Z,84.50
2017-10-02T03:16:53.987Z,84.50
2017-10-02T03:19:23.594Z,84.60
2017-10-02T03:21:53.194Z,84.70
2017-10-02T03:24:22.030Z,84.70
2017-10-02T03:26:50.875Z,84.80
2017-10-02T03:29:19.736Z,84.90
2017-10-02T03:31:48.586Z,84.90
2017-10-02T03:34:17.429Z,84.90
2017-10-02T03:36:46.274Z,85.00
2017-10-02T03:39:15.105Z,85.10
2017-10-02T03:41:43.953Z,85.10
2017-10-02T03:44:12.803Z,85.80
2017-10-02T03:46:41.646Z,85.40
2017-10-02T03:49:10.502Z,85.60
2017-10-02T03:51:40.110Z,85.70
2017-10-02T03:54:09.718Z,85.60
2017-10-02T03:56:38.628Z,85.60
2017-10-02T03:59:07.466Z,85.70
2017-10-02T04:01:36.309Z,85.80
2017-10-02T04:04:05.153Z,85.80
2017-10-02T04:06:34.095Z,85.80
2017-10-02T04:09:02.750Z,86.00
2017-10-02T04:11:31.590Z,86.00
2017-10-02T04:14:00.433Z,86.10
2017-10-02T04:16:30.695Z,86.40
2017-10-02T04:18:59.547Z,86.40
2017-10-02T04:21:28.401Z,86.00
2017-10-02T04:23:57.898Z,86.10
2017-10-02T04:26:26.737Z,86.40
2017-10-02T04:28:55.582Z,86.50
2017-10-02T04:31:24.426Z,86.50
2017-10-02T04:33:53.265Z,86.30
2017-10-02T04:36:22.106Z,86.20
2017-10-02T04:38:50.949Z,86.20
2017-10-02T04:41:19.789Z,86.10
2017-10-02T04:43:49.411Z,86.00
2017-10-02T04:46:18.249Z,86.00
2017-10-02T04:48:47.091Z,86.00
2017-10-02T04:51:15.930Z,86.00
2017-10-02T04:53:44.765Z,86.10
2017-10-02T04:56:14.372Z,85.80
2017-10-02T04:58:43.974Z,85.90
2017-10-02T05:01:12.826Z,85.90
2017-10-02T05:03:41.671Z,85.90
2017-10-02T05:06:10.506Z,86.00
2017-10-02T05:08:39.358Z,86.10
2017-10-02T05:11:08.202Z,86.00
2017-10-02T05:13:37.045Z,86.00
2017-10-02T05:16:05.890Z,85.80
2017-10-02T05:18:34.730Z,85.80
2017-10-02T05:21:03.573Z,85.90
2017-10-02T05:23:32.413Z,85.90
2017-10-02T05:26:01.238Z,86.00
2017-10-02T05:28:30.562Z,86.00
2017-10-02T05:31:00.181Z,86.60
2017-10-02T05:33:29.789Z,85.80
2017-10-02T05:35:58.669Z,85.70
2017-10-02T05:38:27.512Z,85.40
2017-10-02T05:40:56.359Z,85.50
2017-10-02T05:43:26.999Z,85.60
2017-10-02T05:45:57.544Z,88.50
2017-10-02T05:48:26.538Z,88.40
2017-10-02T05:50:55.193Z,85.90
2017-10-02T05:53:25.510Z,85.00
2017-10-02T05:55:58.719Z,85.00
2017-10-02T05:58:32.068Z,84.70
2017-10-02T06:01:01.462Z,84.60
2017-10-02T06:03:32.492Z,84.50
2017-10-02T06:06:01.366Z,84.50
2017-10-02T06:08:31.386Z,84.20
2017-10-02T06:11:01.063Z,83.90
2017-10-02T06:13:29.918Z,83.90
2017-10-02T06:15:58.772Z,83.80
2017-10-02T06:18:28.393Z,83.40
2017-10-02T06:20:57.256Z,83.40
2017-10-02T06:23:26.957Z,83.10
2017-10-02T06:25:56.708Z,83.10
2017-10-02T06:28:25.562Z,82.80
2017-10-02T06:30:55.211Z,82.40
2017-10-02T06:33:24.885Z,82.10
2017-10-02T06:35:53.738Z,81.70
2017-10-02T06:38:23.346Z,81.60
2017-10-02T06:40:52.181Z,81.20
2017-10-02T06:43:21.344Z,81.00
2017-10-02T06:45:50.202Z,80.50
2017-10-02T06:48:19.065Z,80.40
2017-10-02T06:50:48.669Z,80.40
2017-10-02T06:53:18.299Z,80.30
2017-10-02T06:55:48.032Z,80.30
2017-10-02T06:58:16.877Z,80.30
2017-10-02T07:00:45.730Z,80.20
2017-10-02T07:03:14.588Z,80.20
2017-10-02T07:05:44.078Z,80.00
2017-10-02T07:08:14.438Z,79.80
2017-10-02T07:10:43.337Z,79.80
2017-10-02T07:13:12.196Z,79.60
2017-10-02T07:15:44.040Z,79.60
2017-10-02T07:18:13.653Z,79.30
2017-10-02T07:20:43.282Z,79.00
2017-10-02T07:23:12.140Z,79.00
2017-10-02T07:25:40.805Z,78.70
2017-10-02T07:28:09.676Z,79.10
2017-10-02T07:30:38.977Z,78.30
2017-10-02T07:33:07.835Z,78.30
2017-10-02T07:35:37.968Z,78.40
2017-10-02T07:38:06.519Z,78.40
2017-10-02T07:40:35.381Z,78.40
2017-10-02T07:43:05.974Z,78.20
2017-10-02T07:45:38.365Z,78.20
2017-10-02T07:48:07.237Z,78.00
2017-10-02T07:50:38.963Z,77.60
2017-10-02T07:53:07.811Z,77.40
2017-10-02T07:55:36.678Z,77.50
2017-10-02T07:58:05.566Z,77.20
2017-10-02T08:00:35.341Z,77.00
2017-10-02T08:03:05.031Z,76.50
2017-10-02T08:05:33.897Z,76.30
2017-10-02T08:08:02.901Z,76.20
2017-10-02T08:10:31.578Z,76.00
2017-10-02T08:13:00.498Z,75.60
2017-10-02T08:15:29.351Z,75.20
2017-10-02T08:17:58.202Z,74.70
2017-10-02T08:20:27.056Z,74.50
2017-10-02T08:22:55.901Z,74.10
2017-10-02T08:25:25.518Z,73.00
2017-10-02T08:27:55.142Z,72.60
2017-10-02T08:30:23.996Z,72.40
2017-10-02T08:32:54.146Z,70.40
2017-10-02T08:35:23.856Z,70.40
2017-10-02T08:37:52.701Z,69.70
2017-10-02T08:40:21.545Z,69.00
2017-10-02T08:42:50.412Z,68.20
2017-10-02T08:45:20.038Z,67.80
2017-10-02T08:47:49.701Z,67.80
2017-10-02T08:50:18.583Z,67.00
2017-10-02T08:52:47.430Z,66.20
2017-10-02T08:55:16.274Z,66.10
2017-10-02T08:57:45.113Z,64.90
2017-10-02T09:00:13.995Z,64.10
2017-10-02T09:02:43.766Z,63.50
2017-10-02T09:05:12.616Z,63.50
2017-10-02T09:07:41.449Z,63.20
2017-10-02T09:10:10.294Z,62.40
2017-10-02T09:12:39.150Z,62.50
2017-10-02T09:15:08.765Z,61.90
2017-10-02T09:17:38.376Z,61.20
2017-10-02T09:20:07.992Z,60.80
2017-10-02T09:22:37.713Z,60.40
2017-10-02T09:25:06.554Z,60.20
2017-10-02T09:27:35.405Z,59.70
2017-10-02T09:30:04.286Z,59.50
2017-10-02T09:32:33.146Z,59.80
2017-10-02T09:35:02.003Z,59.10
2017-10-02T09:37:31.630Z,59.30
2017-10-02T09:40:00.482Z,58.60
2017-10-02T09:42:29.559Z,58.60
2017-10-02T09:44:58.411Z,58.10
2017-10-02T09:47:27.294Z,57.90
2017-10-02T09:49:56.142Z,57.70
2017-10-02T09:52:25.943Z,57.40
2017-10-02T09:54:54.909Z,56.80
2017-10-02T09:57:23.754Z,56.30
2017-10-02T09:59:52.607Z,56.30
2017-10-02T10:02:22.673Z,55.20
2017-10-02T10:04:51.519Z,55.20
2017-10-02T10:07:21.121Z,54.70
2017-10-02T10:09:52.246Z,54.60
2017-10-02T10:12:21.085Z,54.60
2017-10-02T10:14:49.929Z,54.40
2017-10-02T10:17:18.768Z,54.40
2017-10-02T10:19:47.624Z,54.50
2017-10-02T10:22:17.620Z,55.00
2017-10-02T10:24:46.495Z,54.90
2017-10-02T10:27:15.353Z,55.00
2017-10-02T10:29:44.197Z,55.20
2017-10-02T10:32:13.058Z,55.20
2017-10-02T10:34:41.913Z,55.10
2017-10-02T10:37:10.587Z,55.20
2017-10-02T10:39:40.217Z,55.20
2017-10-02T10:42:09.845Z,55.20
2017-10-02T10:44:38.733Z,54.90
2017-10-02T10:47:07.574Z,55.20
2017-10-02T10:49:36.414Z,55.40
2017-10-02T10:52:05.305Z,55.70
2017-10-02T10:54:34.212Z,55.80
2017-10-02T10:57:03.108Z,55.70
2017-10-02T10:59:31.965Z,55.80
2017-10-02T11:02:00.813Z,55.80
2017-10-02T11:04:29.653Z,55.70
2017-10-02T11:06:58.497Z,55.60
2017-10-02T11:09:27.352Z,55.50
2017-10-02T11:11:56.198Z,55.50
2017-10-02T11:14:25.834Z,55.60
2017-10-02T11:16:54.677Z,55.60
2017-10-02T11:19:23.535Z,55.40
2017-10-02T11:21:52.196Z,55.80
2017-10-02T11:24:21.043Z,55.30
2017-10-02T11:26:50.669Z,55.50
2017-10-02T11:29:20.283Z,55.30
2017-10-02T11:31:49.146Z,55.30
2017-10-02T11:34:18.004Z,55.30
2017-10-02T11:36:46.857Z,55.20
2017-10-02T11:39:16.728Z,55.70
2017-10-02T11:41:46.231Z,55.60
2017-10-02T11:44:15.084Z,55.90
2017-10-02T11:46:43.937Z,55.60
2017-10-02T11:49:12.780Z,55.80
2017-10-02T11:51:41.618Z,56.00
2017-10-02T11:54:10.471Z,56.30
2017-10-02T11:56:39.341Z,56.30
2017-10-02T11:59:08.178Z,56.40
2017-10-02T12:01:36.830Z,56.20
2017-10-02T12:04:05.661Z,56.30
2017-10-02T12:06:34.611Z,56.30
2017-10-02T12:09:02.905Z,55.70
2017-10-02T12:11:32.500Z,55.40
2017-10-02T12:14:01.154Z,55.40
2017-10-02T12:16:30.758Z,54.90
2017-10-02T12:19:00.285Z,55.10
2017-10-02T12:21:29.161Z,55.20
2017-10-02T12:23:57.988Z,55.00
2017-10-02T12:26:27.675Z,54.80
2017-10-02T12:28:57.282Z,54.60
2017-10-02T12:31:26.879Z,54.70
2017-10-02T12:33:56.522Z,54.70
2017-10-02T12:36:26.493Z,54.70
2017-10-02T12:38:55.354Z,54.90
2017-10-02T12:41:24.199Z,55.00
2017-10-02T12:43:53.037Z,55.00
2017-10-02T12:46:21.875Z,55.10
2017-10-02T12:48:51.474Z,55.40
2017-10-02T12:51:21.077Z,55.40
2017-10-02T12:53:49.937Z,55.40
2017-10-02T12:56:18.787Z,55.50
2017-10-02T12:58:47.634Z,55.50
2017-10-02T13:01:16.553Z,55.50
2017-10-02T13:03:46.157Z,55.80
2017-10-02T13:06:15.487Z,56.00
2017-10-02T13:08:44.451Z,56.60
2017-10-02T13:11:13.876Z,56.30
2017-10-02T13:13:42.719Z,56.30
2017-10-02T13:16:12.025Z,56.40
2017-10-02T13:18:40.859Z,56.90
2017-10-02T13:21:10.521Z,57.90
2017-10-02T13:23:39.361Z,57.90
2017-10-02T13:26:08.194Z,58.40
2017-10-02T13:28:37.990Z,59.30
2017-10-02T13:31:06.826Z,59.80
2017-10-02T13:33:35.678Z,60.50
2017-10-02T13:36:04.506Z,60.90
2017-10-02T13:38:33.358Z,61.80
2017-10-02T13:41:03.882Z,63.30
2017-10-02T13:43:32.717Z,63.40
2017-10-02T13:46:01.545Z,64.00
2017-10-02T13:48:30.377Z,64.90
2017-10-02T13:50:59.197Z,65.80
2017-10-02T13:53:28.798Z,67.90
2017-10-02T13:55:57.647Z,67.80
2017-10-02T13:58:26.512Z,68.60
2017-10-02T14:00:55.342Z,70.20
2017-10-02T14:03:23.993Z,70.90
2017-10-02T14:05:52.653Z,71.70
2017-10-02T14:08:22.075Z,73.20
2017-10-02T14:10:50.713Z,73.20
2017-10-02T14:13:19.621Z,73.80
2017-10-02T14:15:48.270Z,74.60
2017-10-02T14:18:16.921Z,75.40
2017-10-02T14:20:46.748Z,75.90
2017-10-02T14:23:16.353Z,76.70
2017-10-02T14:25:45.182Z,76.70
2017-10-02T14:28:14.887Z,77.50
2017-10-02T14:30:43.731Z,78.20
2017-10-02T14:33:12.565Z,78.90
2017-10-02T14:35:41.409Z,79.40
2017-10-02T14:38:10.259Z,80.30
2017-10-02T14:40:39.107Z,80.80
2017-10-02T14:43:07.949Z,81.20
2017-10-02T14:45:36.798Z,81.60
2017-10-02T14:48:05.638Z,82.00
2017-10-02T14:50:35.251Z,82.90
2017-10-02T14:53:04.080Z,82.80
2017-10-02T14:55:32.924Z,83.30
2017-10-02T14:58:01.777Z,83.70
2017-10-02T15:00:30.620Z,84.00
2017-10-02T15:03:00.235Z,84.70
2017-10-02T15:05:29.855Z,84.90
2017-10-02T15:07:58.720Z,84.80
2017-10-02T15:10:28.348Z,86.40
2017-10-02T15:12:57.194Z,86.20
2017-10-02T15:15:26.041Z,86.40
2017-10-02T15:17:54.902Z,86.60
2017-10-02T15:20:25.381Z,87.10
2017-10-02T15:22:54.228Z,87.10
2017-10-02T15:25:23.857Z,87.60
2017-10-02T15:27:53.774Z,87.50
2017-10-02T15:30:22.639Z,88.10
2017-10-02T15:32:52.261Z,88.50
2017-10-02T15:35:21.870Z,88.80
2017-10-02T15:37:50.725Z,88.70
2017-10-02T15:40:19.665Z,89.10
2017-10-02T15:42:48.550Z,89.40
2017-10-02T15:45:17.410Z,89.50
2017-10-02T15:47:46.258Z,90.00
2017-10-02T15:50:15.105Z,90.10
2017-10-02T15:52:44.713Z,90.30
2017-10-02T15:55:14.329Z,90.40
2017-10-02T15:57:43.951Z,90.30
2017-10-02T16:00:12.806Z,90.30
2017-10-02T16:02:41.646Z,90.40
2017-10-02T16:05:11.434Z,90.40
2017-10-02T16:07:41.052Z,90.50
2017-10-02T16:10:09.951Z,90.50
2017-10-02T16:12:38.812Z,90.60
2017-10-02T16:15:08.425Z,90.80
2017-10-02T16:17:45.280Z,90.90
2017-10-02T16:20:19.227Z,90.90
2017-10-02T16:22:53.507Z,90.90
2017-10-02T16:25:29.515Z,91.30
2017-10-02T16:28:06.347Z,91.20
2017-10-02T16:30:41.403Z,91.50
2017-10-02T16:33:11.866Z,91.40
2017-10-02T16:35:41.310Z,91.40
2017-10-02T16:38:11.101Z,91.30
2017-10-02T16:40:40.199Z,91.10
2017-10-02T16:43:10.377Z,91.40
2017-10-02T16:45:42.463Z,91.60
2017-10-02T16:48:11.311Z,91.50
2017-10-02T16:50:40.172Z,91.60
2017-10-02T16:53:09.959Z,91.70
2017-10-02T16:55:38.798Z,91.60
2017-10-02T16:58:07.651Z,91.70
2017-10-02T17:00:36.521Z,91.80
2017-10-02T17:03:06.389Z,91.90
2017-10-02T17:05:35.570Z,91.70
2017-10-02T17:08:04.594Z,91.60
2017-10-02T17:10:33.456Z,91.60
2017-10-02T17:13:03.501Z,91.60
2017-10-02T17:15:32.350Z,91.80
2017-10-02T17:18:01.009Z,91.70
2017-10-02T17:20:30.473Z,91.60
2017-10-02T17:22:59.568Z,91.60
2017-10-02T17:25:29.207Z,91.80
2017-10-02T17:27:58.819Z,92.20
2017-10-02T17:30:28.438Z,92.20
2017-10-02T17:32:57.370Z,92.20
2017-10-02T17:35:26.666Z,92.50
2017-10-02T17:37:56.842Z,92.70
2017-10-02T17:40:26.461Z,92.90
2017-10-02T17:42:56.101Z,93.00
2017-10-02T17:45:24.963Z,93.00
2017-10-02T17:47:54.586Z,93.10
2017-10-02T17:50:26.307Z,93.10
2017-10-02T17:52:55.164Z,93.10
2017-10-02T17:55:24.023Z,93.10
2017-10-02T17:57:52.902Z,93.30
2017-10-02T18:00:22.710Z,93.40
2017-10-02T18:02:52.330Z,93.80
2017-10-02T18:05:21.177Z,93.80
2017-10-02T18:07:50.040Z,93.80
2017-10-02T18:10:20.489Z,93.90
2017-10-02T18:12:50.359Z,93.80
2017-10-02T18:15:20.180Z,93.80
2017-10-02T18:17:49.742Z,93.80
2017-10-02T18:20:19.010Z,93.90
2017-10-02T18:22:48.397Z,93.80
2017-10-02T18:25:17.290Z,93.80
2017-10-02T18:27:46.113Z,94.00
2017-10-02T18:30:14.977Z,94.10
2017-10-02T18:32:43.693Z,94.10
2017-10-02T18:35:12.590Z,94.00
2017-10-02T18:37:41.571Z,94.00
2017-10-02T18:40:11.135Z,94.00
2017-10-02T18:42:40.744Z,93.90
2017-10-02T18:45:12.442Z,93.90
2017-10-02T18:47:41.735Z,94.10
2017-10-02T18:50:10.602Z,94.30
2017-10-02T18:52:39.440Z,94.40
2017-10-02T18:55:08.615Z,94.30
2017-10-02T18:57:44.038Z,94.40
2017-10-02T19:00:13.640Z,94.30
2017-10-02T19:02:42.974Z,94.30
2017-10-02T19:05:13.926Z,94.40
2017-10-02T19:07:43.196Z,94.40
2017-10-02T19:10:13.084Z,94.60
2017-10-02T19:12:42.943Z,94.80
2017-10-02T19:15:11.789Z,94.80
2017-10-02T19:17:41.030Z,95.00
2017-10-02T19:20:12.017Z,95.20
2017-10-02T19:22:44.518Z,95.20
2017-10-02T19:25:14.177Z,95.30
2017-10-02T19:27:44.612Z,95.30
2017-10-02T19:30:14.293Z,95.30
2017-10-02T19:32:43.158Z,95.40
2017-10-02T19:35:12.295Z,95.40
2017-10-02T19:37:42.609Z,95.50
2017-10-02T19:40:12.439Z,95.60
2017-10-02T19:42:46.362Z,95.70
2017-10-02T19:45:16.524Z,95.50
2017-10-02T19:50:20.993Z,95.50
2017-10-02T19:52:49.842Z,95.50
2017-10-02T19:55:19.589Z,95.50
2017-10-02T19:57:48.533Z,95.50
2017-10-02T20:00:19.062Z,95.80
2017-10-02T20:02:47.893Z,95.80
2017-10-02T20:05:17.374Z,96.00
2017-10-02T20:07:47.100Z,95.10
2017-10-02T20:10:17.826Z,95.10
2017-10-02T20:12:53.967Z,94.70
2017-10-02T20:15:23.366Z,94.60
2017-10-02T20:17:51.906Z,94.60
2017-10-02T20:20:20.778Z,94.40
2017-10-02T20:22:52.497Z,94.50
2017-10-02T20:25:24.271Z,94.90
2017-10-02T20:27:53.475Z,94.90
2017-10-02T20:30:27.510Z,94.90
2017-10-02T20:32:56.391Z,95.00
2017-10-02T20:35:25.244Z,95.10
2017-10-02T20:37:54.973Z,95.30
2017-10-02T20:40:23.916Z,95.60
2017-10-02T20:42:54.525Z,95.70
2017-10-02T20:45:23.354Z,95.80
2017-10-02T20:47:52.190Z,95.90
2017-10-02T20:50:22.356Z,96.10
2017-10-02T20:52:50.937Z,96.10
2017-10-02T20:55:19.777Z,96.30
2017-10-02T20:57:48.610Z,96.50
2017-10-02T21:00:17.435Z,96.70
2017-10-02T21:02:47.009Z,96.80
2017-10-02T21:05:15.865Z,96.70
2017-10-02T21:07:45.480Z,96.90
2017-10-02T21:10:15.010Z,96.90
2017-10-02T21:12:43.841Z,97.20
2017-10-02T21:15:12.712Z,97.10
2017-10-02T21:17:41.551Z,96.80
2017-10-02T21:20:11.159Z,96.80
2017-10-02T21:22:40.756Z,96.50
2017-10-02T21:25:09.580Z,96.50
2017-10-02T21:27:38.415Z,96.30
2017-10-02T21:30:07.252Z,96.10
2017-10-02T21:32:36.859Z,96.60
2017-10-02T21:35:06.445Z,96.40
2017-10-02T21:37:35.263Z,96.40
2017-10-02T21:40:04.110Z,96.40
2017-10-02T21:42:32.936Z,96.30
2017-10-02T21:45:02.525Z,96.00
2017-10-02T21:47:31.353Z,96.00
2017-10-02T21:50:00.190Z,96.10
2017-10-02T21:52:29.026Z,96.30
2017-10-02T21:54:57.863Z,96.70
2017-10-02T21:57:26.685Z,96.80
2017-10-02T21:59:56.289Z,97.40
2017-10-02T22:02:25.897Z,97.60
2017-10-02T22:04:55.489Z,97.90
2017-10-02T22:07:24.318Z,97.80
2017-10-02T22:09:53.154Z,97.90
2017-10-02T22:12:22.897Z,98.00
2017-10-02T22:14:52.500Z,98.10
2017-10-02T22:17:21.413Z,98.00
2017-10-02T22:19:50.259Z,98.00
2017-10-02T22:22:19.098Z,98.10
2017-10-02T22:24:47.921Z,98.10
2017-10-02T22:27:16.563Z,98.10
2017-10-02T22:29:46.226Z,98.10
2017-10-02T22:32:15.072Z,98.10
2017-10-02T22:34:45.590Z,98.10
2017-10-02T22:37:15.201Z,98.20
2017-10-02T22:39:45.456Z,98.10
2017-10-02T22:42:14.301Z,98.10
2017-10-02T22:44:43.122Z,98.00
2017-10-02T22:47:11.945Z,98.20
2017-10-02T22:49:40.774Z,98.30
2017-10-02T22:52:09.604Z,98.30
2017-10-02T22:54:38.242Z,98.50
2017-10-02T22:57:07.073Z,98.50
2017-10-02T22:59:35.911Z,98.60
2017-10-02T23:02:04.744Z,98.50
2017-10-02T23:04:33.594Z,98.60
2017-10-02T23:07:02.422Z,98.70
2017-10-02T23:09:31.070Z,98.80
2017-10-02T23:11:59.895Z,98.70
2017-10-02T23:14:29.485Z,98.70
2017-10-02T23:16:59.187Z,98.70
2017-10-02T23:19:28.014Z,98.70
2017-10-02T23:21:57.604Z,98.60
2017-10-02T23:24:26.515Z,98.60
2017-10-02T23:26:55.350Z,98.60
2017-10-02T23:29:24.174Z,98.50
2017-10-02T23:31:53.776Z,98.60
2017-10-02T23:34:22.602Z,98.60
2017-10-02T23:36:51.426Z,98.70
2017-10-02T23:39:20.263Z,98.90
2017-10-02T23:41:49.919Z,99.30
2017-10-02T23:44:18.745Z,99.30
2017-10-02T23:46:47.619Z,99.20
2017-10-02T23:49:16.450Z,99.60
2017-10-02T23:51:46.052Z,99.50
2017-10-02T23:54:16.562Z,99.50
2017-10-02T23:56:45.392Z,99.50
2017-10-02T23:59:14.230Z,99.60
